Finnhawk — OJNL — position and weather

sailwx.info

Track history (hours):
 
Tides and Currents Weather Stations Pressure Air Temp Water Temp Dewpoint Dewpoint Depression Visibility Wind Speed Wind Dir Waves Ship Positions

Finnhawk

Last reported at 2014-Sep-30 00:30 UTC. Time now 2014-Oct-01 08:21 UTC.
Position N 59°33' E 021°30'.

Length 163 m; draft 5.3 m.

Type: Ship. MMSI: 230007000.

Date/timePositionNaut miles runAvg speedWind from/ knotsBaromVisibWave heightAir tempDewpointWater temp
2014-Sep-30 00:30N 59°33' E 021°30'4118.0
2014-Sep-29 22:12N 59°37' E 022°51'1218.0
2014-Sep-29 21:33N 59°39' E 023°13'2018.0
2014-Sep-29 20:28N 59°44' E 023°51'1617.9
2014-Sep-29 19:33N 59°49' E 024°22'14 1.5
2014-Sep-29 10:23N 59°51' E 024°49'2017.5
2014-Sep-29 09:16N 59°42' E 024°14'1217.7
2014-Sep-29 08:33N 59°38' E 023°50'1818.0
2014-Sep-29 07:33N 59°32' E 023°17'19618.9
2014-Sep-28 21:12N 57°10' E 018°59'1319.5
2014-Sep-28 20:33N 57°00' E 018°44'2619.2
2014-Sep-28 19:11N 56°40' E 018°14'7019.2
2014-Sep-28 15:33N 55°58' E 016°34'3919.4
2014-Sep-28 13:33N 55°39' E 015°33'2019.6
2014-Sep-28 12:34N 55°32' E 015°02'1919.4
2014-Sep-28 11:34N 55°20' E 014°35'1818.3
2014-Sep-28 10:33N 55°09' E 014°08'2019.6
2014-Sep-28 09:34N 55°12' E 013°34'1919.4
2014-Sep-28 08:33N 55°14' E 013°01'1514.8
2014-Sep-28 07:33N 55°22' E 012°38'1212.5
2014-Sep-28 06:34N 55°34' E 012°42'1413.9
2014-Sep-28 05:34N 55°48' E 012°42'1716.6
2014-Sep-28 04:33N 56°05' E 012°36'1818.4
2014-Sep-28 03:33N 56°19' E 012°15'2019.5
2014-Sep-28 02:33N 56°35' E 011°56'1919.1
2014-Sep-28 01:33N 56°53' E 011°46'2019.5
2014-Sep-28 00:33N 57°12' E 011°34'1919.2
2014-Sep-27 23:33N 57°29' E 011°19'2019.8
2014-Sep-27 22:33N 57°43' E 010°53'2118.6
2014-Sep-27 21:27N 57°43' E 010°14'1819.8
2014-Sep-27 20:33N 57°36' E 009°44'1919.5
2014-Sep-27 19:33N 57°26' E 009°13'23018.8
2014-Sep-27 07:19N 54°21' E 005°09'1819.2
2014-Sep-27 06:22N 54°06' E 004°51'1518.9
2014-Sep-27 05:33N 53°50' E 004°51'1918.6
2014-Sep-27 04:32N 53°32' E 004°46'1918.9
2014-Sep-27 03:31N 53°14' E 004°33'1818.8
2014-Sep-27 02:33N 52°58' E 004°18'1818.4
2014-Sep-27 01:33N 52°42' E 004°02'1918.4
2014-Sep-27 00:33N 52°29' E 003°41'1918.2
2014-Sep-26 23:31N 52°12' E 003°29'1817.9
2014-Sep-26 22:32N 51°55' E 003°22'1515.0
2014-Sep-26 21:33N 51°40' E 003°19'1515.3
2014-Sep-26 20:33N 51°27' E 003°32'1413.7
2014-Sep-26 19:33N 51°21' E 003°51'1313.1
2014-Sep-26 18:33N 51°24' E 004°12'9 8.7
2014-Sep-26 17:33N 51°16' E 004°17'1 0.7
2014-Sep-26 16:33N 51°16' E 004°16'2 1.5
2014-Sep-26 15:25N 51°17' E 004°13'0 0.0
2014-Sep-26 14:31N 51°17' E 004°13'0 0.0
2014-Sep-26 13:25N 51°17' E 004°13'0 0.0
2014-Sep-26 12:31N 51°17' E 004°13'0 0.0
2014-Sep-26 11:31N 51°17' E 004°13'0 0.0
2014-Sep-26 10:22N 51°17' E 004°13'0 0.0
2014-Sep-26 09:31N 51°17' E 004°13'0 0.0
2014-Sep-26 08:31N 51°17' E 004°13'0 0.0
2014-Sep-26 07:28N 51°17' E 004°13'2 2.6
2014-Sep-26 06:33N 51°16' E 004°17'2 2.1
2014-Sep-26 05:34N 51°17' E 004°19'1010.2
2014-Sep-26 04:34N 51°22' E 004°05'9 9.4
2014-Sep-26 03:34N 51°21' E 003°50'1110.9
2014-Sep-26 02:33N 51°26' E 003°34'1212.0
2014-Sep-26 01:33N 51°36' E 003°23'1413.6
2014-Sep-26 00:33N 51°48' E 003°15'6 5.6
2014-Sep-25 23:28N 51°54' E 003°19'1613.4
2014-Sep-25 22:17N 52°09' E 003°25'1114.7
2014-Sep-25 21:31N 52°19' E 003°35'1414.8
2014-Sep-25 20:33N 52°25' E 003°56'1515.1
2014-Sep-25 19:33N 52°28' E 004°20'10 9.7
2014-Sep-25 18:33N 52°28' E 004°36'2 1.8
2014-Sep-25 17:33N 52°28' E 004°39'7 6.6
2014-Sep-25 16:33N 52°25' E 004°49'1 1.4
2014-Sep-25 15:32N 52°24' E 004°50'0 0.0
2014-Sep-25 14:32N 52°24' E 004°50'0 0.0
2014-Sep-25 13:33N 52°24' E 004°50'0 0.0
2014-Sep-25 12:32N 52°24' E 004°50'0 0.0
2014-Sep-25 11:32N 52°24' E 004°50'0 0.0
2014-Sep-25 10:32N 52°24' E 004°50'0 0.0
2014-Sep-25 09:33N 52°24' E 004°50'0 0.0
2014-Sep-25 08:33N 52°24' E 004°50'0 0.0
2014-Sep-25 07:33N 52°24' E 004°50'0 0.0
2014-Sep-25 06:32N 52°24' E 004°50'0 0.3
2014-Sep-25 05:33N 52°24' E 004°49'7 6.8
2014-Sep-25 04:33N 52°28' E 004°40'3 3.0
2014-Sep-25 03:33N 52°28' E 004°35'7 6.7
2014-Sep-25 02:33N 52°29' E 004°24'1514.9
2014-Sep-25 01:33N 52°28' E 003°60'6917.3
2014-Sep-24 21:33N 52°43' E 002°08'1918.6
2014-Sep-24 20:34N 52°52' E 001°42'1919.1
2014-Sep-24 19:33N 52°60' E 001°13'2819.0
2014-Sep-24 18:04N 53°19' E 000°38'1120.3
2014-Sep-24 17:33N 53°28' E 000°29'1514.7
2014-Sep-24 16:33N 53°34' E 000°06'1312.8
2014-Sep-24 15:33N 53°40' W 000°13'5 4.9
2014-Sep-24 14:33N 53°45' W 000°16'0 0.3
2014-Sep-24 13:33N 53°44' W 000°16'0 0.0
2014-Sep-24 12:30N 53°44' W 000°16'0 0.0
2014-Sep-24 11:33N 53°44' W 000°16'0 0.0
2014-Sep-24 10:33N 53°44' W 000°16'0 0.0
2014-Sep-24 09:33N 53°44' W 000°16'0 0.0
2014-Sep-24 08:30N 53°44' W 000°16'0 0.0
2014-Sep-24 07:33N 53°44' W 000°16'0 0.0
2014-Sep-24 06:33N 53°44' W 000°16'0 0.0
2014-Sep-24 05:33N 53°44' W 000°16'0 0.0
2014-Sep-24 04:30N 53°44' W 000°16'0 0.0
2014-Sep-24 03:33N 53°44' W 000°16'0 0.0
2014-Sep-24 02:30N 53°44' W 000°16'0 0.0
2014-Sep-24 01:24N 53°44' W 000°16'0 0.0
2014-Sep-24 00:33N 53°44' W 000°16'0 0.0
2014-Sep-23 23:24N 53°44' W 000°16'0 0.0
2014-Sep-23 22:30N 53°44' W 000°16'0 0.0
2014-Sep-23 21:30N 53°44' W 000°16'0 0.0
2014-Sep-23 20:30N 53°44' W 000°16'0 0.0
2014-Sep-23 19:33N 53°44' W 000°16'0 0.2
2014-Sep-23 18:34N 53°45' W 000°16'2 2.2
2014-Sep-23 17:34N 53°43' W 000°14'5 5.1
2014-Sep-23 16:34N 53°38' W 000°11'0 0.4
2014-Sep-23 15:32N 53°38' W 000°12'0 0.0
2014-Sep-23 14:29N 53°38' W 000°12'0 0.0
2014-Sep-23 13:32N 53°38' W 000°12'0 0.0
2014-Sep-23 12:32N 53°38' W 000°12'0 0.3
2014-Sep-23 11:33N 53°38' W 000°12'0 0.4
2014-Sep-23 10:33N 53°38' W 000°11'6 6.3
2014-Sep-23 09:34N 53°37' W 000°01'1111.4
2014-Sep-23 08:34N 53°36' E 000°18'1513.9
2014-Sep-23 07:30N 53°45' E 000°37'40616.2
2014-Sep-22 06:24N 57°46' E 010°18'1416.1
2014-Sep-22 05:33N 57°48' E 010°44'1515.0
2014-Sep-22 04:34N 57°39' E 011°06'1615.5
2014-Sep-22 03:33N 57°28' E 011°26'1615.7
2014-Sep-22 02:33N 57°14' E 011°37'1615.9
2014-Sep-22 01:33N 56°59' E 011°47'1616.1
2014-Sep-22 00:33N 56°43' E 011°55'1616.2
2014-Sep-21 23:33N 56°28' E 012°04'1716.8
2014-Sep-21 22:33N 56°14' E 012°22'1615.8
2014-Sep-21 21:33N 56°02' E 012°40'1514.6
2014-Sep-21 20:33N 55°47' E 012°43'1212.2
2014-Sep-21 19:33N 55°35' E 012°42'1312.9
2014-Sep-21 18:33N 55°22' E 012°40'1212.3
2014-Sep-21 17:33N 55°15' E 012°58'4815.7
2014-Sep-21 14:31N 55°18' E 014°21'1616.6
2014-Sep-21 13:33N 55°29' E 014°41'3316.6
2014-Sep-21 11:33N 55°45' E 015°32'5616.6
2014-Sep-21 08:09N 56°20' E 016°52'1117.5
2014-Sep-21 07:32N 56°30' E 016°59'1717.5
2014-Sep-21 06:33N 56°46' E 017°11'1817.6
2014-Sep-21 05:33N 57°03' E 017°24'2317.4
2014-Sep-21 04:13N 57°24' E 017°39'2917.1
2014-Sep-21 02:32N 57°46' E 018°14'2516.9
2014-Sep-21 01:04N 58°02' E 018°50'16116.8
2014-Sep-20 15:28N 59°36' E 023°04'1616.9
2014-Sep-20 14:33N 59°41' E 023°33'1817.0
2014-Sep-20 13:29N 59°47' E 024°07'1617.5
2014-Sep-20 12:33N 59°51' E 024°38'1717.2
2014-Sep-20 11:33N 60°01' E 025°06'  
Track history (hours):
 
Tides and Currents Weather Stations Pressure Air Temp Water Temp Dewpoint Dewpoint Depression Visibility Wind Speed Wind Dir Waves Ship Positions

Finnhawk

Last reported at 2014-Sep-30 00:30 UTC. Time now 2014-Oct-01 08:21 UTC.
Position N 59°33' E 021°30'.

Length 163 m; draft 5.3 m.

Type: Ship. MMSI: 230007000.

Date/timePositionNaut miles runAvg speedWind from/ knotsBaromVisibWave heightAir tempDewpointWater temp
2014-Sep-30 00:30N 59°33' E 021°30'4118.0
2014-Sep-29 22:12N 59°37' E 022°51'1218.0
2014-Sep-29 21:33N 59°39' E 023°13'2018.0
2014-Sep-29 20:28N 59°44' E 023°51'1617.9
2014-Sep-29 19:33N 59°49' E 024°22'14 1.5
2014-Sep-29 10:23N 59°51' E 024°49'2017.5
2014-Sep-29 09:16N 59°42' E 024°14'1217.7
2014-Sep-29 08:33N 59°38' E 023°50'1818.0
2014-Sep-29 07:33N 59°32' E 023°17'19618.9
2014-Sep-28 21:12N 57°10' E 018°59'1319.5
2014-Sep-28 20:33N 57°00' E 018°44'2619.2
2014-Sep-28 19:11N 56°40' E 018°14'7019.2
2014-Sep-28 15:33N 55°58' E 016°34'3919.4
2014-Sep-28 13:33N 55°39' E 015°33'2019.6
2014-Sep-28 12:34N 55°32' E 015°02'1919.4
2014-Sep-28 11:34N 55°20' E 014°35'1818.3
2014-Sep-28 10:33N 55°09' E 014°08'2019.6
2014-Sep-28 09:34N 55°12' E 013°34'1919.4
2014-Sep-28 08:33N 55°14' E 013°01'1514.8
2014-Sep-28 07:33N 55°22' E 012°38'1212.5
2014-Sep-28 06:34N 55°34' E 012°42'1413.9
2014-Sep-28 05:34N 55°48' E 012°42'1716.6
2014-Sep-28 04:33N 56°05' E 012°36'1818.4
2014-Sep-28 03:33N 56°19' E 012°15'2019.5
2014-Sep-28 02:33N 56°35' E 011°56'1919.1
2014-Sep-28 01:33N 56°53' E 011°46'2019.5
2014-Sep-28 00:33N 57°12' E 011°34'1919.2
2014-Sep-27 23:33N 57°29' E 011°19'2019.8
2014-Sep-27 22:33N 57°43' E 010°53'2118.6
2014-Sep-27 21:27N 57°43' E 010°14'1819.8
2014-Sep-27 20:33N 57°36' E 009°44'1919.5
2014-Sep-27 19:33N 57°26' E 009°13'23018.8
2014-Sep-27 07:19N 54°21' E 005°09'1819.2
2014-Sep-27 06:22N 54°06' E 004°51'1518.9
2014-Sep-27 05:33N 53°50' E 004°51'1918.6
2014-Sep-27 04:32N 53°32' E 004°46'1918.9
2014-Sep-27 03:31N 53°14' E 004°33'1818.8
2014-Sep-27 02:33N 52°58' E 004°18'1818.4
2014-Sep-27 01:33N 52°42' E 004°02'1918.4
2014-Sep-27 00:33N 52°29' E 003°41'1918.2
2014-Sep-26 23:31N 52°12' E 003°29'1817.9
2014-Sep-26 22:32N 51°55' E 003°22'1515.0
2014-Sep-26 21:33N 51°40' E 003°19'1515.3
2014-Sep-26 20:33N 51°27' E 003°32'1413.7
2014-Sep-26 19:33N 51°21' E 003°51'1313.1
2014-Sep-26 18:33N 51°24' E 004°12'9 8.7
2014-Sep-26 17:33N 51°16' E 004°17'1 0.7
2014-Sep-26 16:33N 51°16' E 004°16'2 1.5
2014-Sep-26 15:25N 51°17' E 004°13'0 0.0
2014-Sep-26 14:31N 51°17' E 004°13'0 0.0
2014-Sep-26 13:25N 51°17' E 004°13'0 0.0
2014-Sep-26 12:31N 51°17' E 004°13'0 0.0
2014-Sep-26 11:31N 51°17' E 004°13'0 0.0
2014-Sep-26 10:22N 51°17' E 004°13'0 0.0
2014-Sep-26 09:31N 51°17' E 004°13'0 0.0
2014-Sep-26 08:31N 51°17' E 004°13'0 0.0
2014-Sep-26 07:28N 51°17' E 004°13'2 2.6
2014-Sep-26 06:33N 51°16' E 004°17'2 2.1
2014-Sep-26 05:34N 51°17' E 004°19'1010.2
2014-Sep-26 04:34N 51°22' E 004°05'9 9.4
2014-Sep-26 03:34N 51°21' E 003°50'1110.9
2014-Sep-26 02:33N 51°26' E 003°34'1212.0
2014-Sep-26 01:33N 51°36' E 003°23'1413.6
2014-Sep-26 00:33N 51°48' E 003°15'6 5.6
2014-Sep-25 23:28N 51°54' E 003°19'1613.4
2014-Sep-25 22:17N 52°09' E 003°25'1114.7
2014-Sep-25 21:31N 52°19' E 003°35'1414.8
2014-Sep-25 20:33N 52°25' E 003°56'1515.1
2014-Sep-25 19:33N 52°28' E 004°20'10 9.7
2014-Sep-25 18:33N 52°28' E 004°36'2 1.8
2014-Sep-25 17:33N 52°28' E 004°39'7 6.6
2014-Sep-25 16:33N 52°25' E 004°49'1 1.4
2014-Sep-25 15:32N 52°24' E 004°50'0 0.0
2014-Sep-25 14:32N 52°24' E 004°50'0 0.0
2014-Sep-25 13:33N 52°24' E 004°50'0 0.0
2014-Sep-25 12:32N 52°24' E 004°50'0 0.0
2014-Sep-25 11:32N 52°24' E 004°50'0 0.0
2014-Sep-25 10:32N 52°24' E 004°50'0 0.0
2014-Sep-25 09:33N 52°24' E 004°50'0 0.0
2014-Sep-25 08:33N 52°24' E 004°50'0 0.0
2014-Sep-25 07:33N 52°24' E 004°50'0 0.0
2014-Sep-25 06:32N 52°24' E 004°50'0 0.3
2014-Sep-25 05:33N 52°24' E 004°49'7 6.8
2014-Sep-25 04:33N 52°28' E 004°40'3 3.0
2014-Sep-25 03:33N 52°28' E 004°35'7 6.7
2014-Sep-25 02:33N 52°29' E 004°24'1514.9
2014-Sep-25 01:33N 52°28' E 003°60'6917.3
2014-Sep-24 21:33N 52°43' E 002°08'1918.6
2014-Sep-24 20:34N 52°52' E 001°42'1919.1
2014-Sep-24 19:33N 52°60' E 001°13'2819.0
2014-Sep-24 18:04N 53°19' E 000°38'1120.3
2014-Sep-24 17:33N 53°28' E 000°29'1514.7
2014-Sep-24 16:33N 53°34' E 000°06'1312.8
2014-Sep-24 15:33N 53°40' W 000°13'5 4.9
2014-Sep-24 14:33N 53°45' W 000°16'0 0.3
2014-Sep-24 13:33N 53°44' W 000°16'0 0.0
2014-Sep-24 12:30N 53°44' W 000°16'0 0.0
2014-Sep-24 11:33N 53°44' W 000°16'0 0.0
2014-Sep-24 10:33N 53°44' W 000°16'0 0.0
2014-Sep-24 09:33N 53°44' W 000°16'0 0.0
2014-Sep-24 08:30N 53°44' W 000°16'0 0.0
2014-Sep-24 07:33N 53°44' W 000°16'0 0.0
2014-Sep-24 06:33N 53°44' W 000°16'0 0.0
2014-Sep-24 05:33N 53°44' W 000°16'0 0.0
2014-Sep-24 04:30N 53°44' W 000°16'0 0.0
2014-Sep-24 03:33N 53°44' W 000°16'0 0.0
2014-Sep-24 02:30N 53°44' W 000°16'0 0.0
2014-Sep-24 01:24N 53°44' W 000°16'0 0.0
2014-Sep-24 00:33N 53°44' W 000°16'0 0.0
2014-Sep-23 23:24N 53°44' W 000°16'0 0.0
2014-Sep-23 22:30N 53°44' W 000°16'0 0.0
2014-Sep-23 21:30N 53°44' W 000°16'0 0.0
2014-Sep-23 20:30N 53°44' W 000°16'0 0.0
2014-Sep-23 19:33N 53°44' W 000°16'0 0.2
2014-Sep-23 18:34N 53°45' W 000°16'2 2.2
2014-Sep-23 17:34N 53°43' W 000°14'5 5.1
2014-Sep-23 16:34N 53°38' W 000°11'0 0.4
2014-Sep-23 15:32N 53°38' W 000°12'0 0.0
2014-Sep-23 14:29N 53°38' W 000°12'0 0.0
2014-Sep-23 13:32N 53°38' W 000°12'0 0.0
2014-Sep-23 12:32N 53°38' W 000°12'0 0.3
2014-Sep-23 11:33N 53°38' W 000°12'0 0.4
2014-Sep-23 10:33N 53°38' W 000°11'6 6.3
2014-Sep-23 09:34N 53°37' W 000°01'1111.4
2014-Sep-23 08:34N 53°36' E 000°18'1513.9
2014-Sep-23 07:30N 53°45' E 000°37'40616.2
2014-Sep-22 06:24N 57°46' E 010°18'1416.1
2014-Sep-22 05:33N 57°48' E 010°44'1515.0
2014-Sep-22 04:34N 57°39' E 011°06'1615.5
2014-Sep-22 03:33N 57°28' E 011°26'1615.7
2014-Sep-22 02:33N 57°14' E 011°37'1615.9
2014-Sep-22 01:33N 56°59' E 011°47'1616.1
2014-Sep-22 00:33N 56°43' E 011°55'1616.2
2014-Sep-21 23:33N 56°28' E 012°04'1716.8
2014-Sep-21 22:33N 56°14' E 012°22'1615.8
2014-Sep-21 21:33N 56°02' E 012°40'1514.6
2014-Sep-21 20:33N 55°47' E 012°43'1212.2
2014-Sep-21 19:33N 55°35' E 012°42'1312.9
2014-Sep-21 18:33N 55°22' E 012°40'1212.3
2014-Sep-21 17:33N 55°15' E 012°58'4815.7
2014-Sep-21 14:31N 55°18' E 014°21'1616.6
2014-Sep-21 13:33N 55°29' E 014°41'3316.6
2014-Sep-21 11:33N 55°45' E 015°32'5616.6
2014-Sep-21 08:09N 56°20' E 016°52'1117.5
2014-Sep-21 07:32N 56°30' E 016°59'1717.5
2014-Sep-21 06:33N 56°46' E 017°11'1817.6
2014-Sep-21 05:33N 57°03' E 017°24'2317.4
2014-Sep-21 04:13N 57°24' E 017°39'2917.1
2014-Sep-21 02:32N 57°46' E 018°14'2516.9
2014-Sep-21 01:04N 58°02' E 018°50'16116.8
2014-Sep-20 15:28N 59°36' E 023°04'1616.9
2014-Sep-20 14:33N 59°41' E 023°33'1817.0
2014-Sep-20 13:29N 59°47' E 024°07'1617.5
2014-Sep-20 12:33N 59°51' E 024°38'1717.2
2014-Sep-20 11:33N 60°01' E 025°06'  

Dump ship's entire track history